Terminal Aerodrome Forecast
Issued by NWS

Current Version | Previous Version | Text Only | Print | Product List | Glossary On
Versions: 1 2 3 4 5 6 7 8 9 10 11 12
000
FTUS42 KMLB 220500
TAFSUA
TAF
KSUA 220533Z 2206/2306 18004KT P6SM OVC100
     FM220800 18003KT P6SM FEW035 OVC100
     FM221600 18009KT P6SM VCSH SCT025 BKN050 BKN100=

USA.gov is the U.S. government's official web portal to all federal, state and local government web resources and services.